ETH955 FKYS-FOOL
Flight info
| Callsign | ETH955 |
|---|---|
| Flight time | N/A |
| Altitude | 32000 |
| Route | ERKUT1Q ERKUT H455 ARASI ARASI2L |
| Aircraft | B38M/M-SDE1FGHILORVWXY/HB1 |
Departure
| Time | N/A |
|---|---|
| Airport | Yaoundé Nsimalen International Airport (FKYS) |
Arrival
| Time | 2026-04-22 09:45 |
|---|---|
| Airport | Libreville Leon M'ba International Airport (FOOL) |
| Time | Latitude | Longitude | Altitude | Speed | Heading |
|---|---|---|---|---|---|
| 2026-04-22 09:39 | 0.68566 | 9.40273 | 4891 ft | 262 kts | 244° |
| 2026-04-22 09:40 | 0.67764 | 9.38650 | 4658 ft | 259 kts | 243° |
| 2026-04-22 09:40 | 0.66960 | 9.37051 | 4404 ft | 256 kts | 243° |
| 2026-04-22 09:40 | 0.66175 | 9.35475 | 4165 ft | 249 kts | 244° |
| 2026-04-22 09:40 | 0.65293 | 9.34045 | 3879 ft | 239 kts | 224° |
| 2026-04-22 09:41 | 0.63872 | 9.33300 | 3649 ft | 229 kts | 190° |
| 2026-04-22 09:41 | 0.62327 | 9.33408 | 3361 ft | 222 kts | 161° |
| 2026-04-22 09:41 | 0.60921 | 9.33997 | 3079 ft | 216 kts | 157° |
| 2026-04-22 09:41 | 0.59574 | 9.34583 | 2749 ft | 207 kts | 156° |
| 2026-04-22 09:42 | 0.58296 | 9.35185 | 2441 ft | 199 kts | 154° |
| 2026-04-22 09:42 | 0.57082 | 9.35777 | 2163 ft | 187 kts | 155° |
| 2026-04-22 09:42 | 0.55967 | 9.36319 | 1933 ft | 169 kts | 155° |
| 2026-04-22 09:42 | 0.54962 | 9.36809 | 1731 ft | 156 kts | 154° |
| 2026-04-22 09:43 | 0.53994 | 9.37280 | 1529 ft | 154 kts | 155° |
| 2026-04-22 09:43 | 0.53029 | 9.37744 | 1319 ft | 154 kts | 154° |
| 2026-04-22 09:43 | 0.52075 | 9.38209 | 1120 ft | 152 kts | 154° |
| 2026-04-22 09:43 | 0.51121 | 9.38666 | 911 ft | 151 kts | 155° |
| 2026-04-22 09:44 | 0.50191 | 9.39126 | 818 ft | 151 kts | 153° |
| 2026-04-22 09:44 | 0.49244 | 9.39596 | 533 ft | 153 kts | 155° |
| 2026-04-22 09:44 | 0.48305 | 9.40048 | 303 ft | 148 kts | 154° |
| 2026-04-22 09:44 | 0.47379 | 9.40504 | 135 ft | 147 kts | 156° |
| 2026-04-22 09:45 | 0.46511 | 9.40918 | 40 ft | 119 kts | 154° |
| 2026-04-22 09:45 | 0.45992 | 9.41170 | 39 ft | 50 kts | 155° |
| 2026-04-22 09:45 | 0.45830 | 9.41205 | 39 ft | 13 kts | 226° |
| 2026-04-22 09:45 | 0.45811 | 9.41173 | 39 ft | 2 kts | 232° |
| 2026-04-22 09:46 | 0.45796 | 9.41156 | 39 ft | 5 kts | 220° |
| 2026-04-22 09:46 | 0.45772 | 9.41125 | 39 ft | 5 kts | 241° |
| 2026-04-22 09:46 | 0.45749 | 9.41090 | 39 ft | 2 kts | 238° |
| 2026-04-22 09:46 | 0.45745 | 9.41083 | 39 ft | 0 kts | 238° |